sensor_id;sensor_type;location;lat;lon;timestamp;P1;durP1;ratioP1;P2;durP2;ratioP2
69795;SDS011;57073;45.650;9.612;2022-11-15T00:04:57;7.28;;;3.95;;
69795;SDS011;57073;45.650;9.612;2022-11-15T00:14:57;5.75;;;3.08;;
69795;SDS011;57073;45.650;9.612;2022-11-15T00:24:57;5.80;;;3.53;;
69795;SDS011;57073;45.650;9.612;2022-11-15T00:34:58;7.13;;;3.17;;
69795;SDS011;57073;45.650;9.612;2022-11-15T00:44:58;5.80;;;3.28;;
69795;SDS011;57073;45.650;9.612;2022-11-15T00:54:58;6.25;;;3.50;;
69795;SDS011;57073;45.650;9.612;2022-11-15T01:04:59;6.40;;;3.37;;
69795;SDS011;57073;45.650;9.612;2022-11-15T01:14:59;7.40;;;3.60;;
69795;SDS011;57073;45.650;9.612;2022-11-15T01:25:00;6.23;;;3.07;;
69795;SDS011;57073;45.650;9.612;2022-11-15T01:35:00;5.82;;;3.50;;
69795;SDS011;57073;45.650;9.612;2022-11-15T01:45:00;6.67;;;3.27;;
69795;SDS011;57073;45.650;9.612;2022-11-15T01:55:03;4.82;;;2.83;;
69795;SDS011;57073;45.650;9.612;2022-11-15T02:05:10;4.97;;;2.90;;
69795;SDS011;57073;45.650;9.612;2022-11-15T02:15:10;5.30;;;3.05;;
69795;SDS011;57073;45.650;9.612;2022-11-15T02:45:50;5.77;;;3.03;;
69795;SDS011;57073;45.650;9.612;2022-11-15T02:55:54;5.78;;;3.22;;
69795;SDS011;57073;45.650;9.612;2022-11-15T03:16:11;5.17;;;2.60;;
69795;SDS011;57073;45.650;9.612;2022-11-15T03:26:19;4.57;;;2.65;;
69795;SDS011;57073;45.650;9.612;2022-11-15T03:36:23;5.60;;;2.83;;
69795;SDS011;57073;45.650;9.612;2022-11-15T03:46:32;5.07;;;2.40;;
69795;SDS011;57073;45.650;9.612;2022-11-15T03:56:46;6.22;;;3.05;;
69795;SDS011;57073;45.650;9.612;2022-11-15T04:06:47;5.23;;;3.00;;
69795;SDS011;57073;45.650;9.612;2022-11-15T04:16:47;4.65;;;2.50;;
69795;SDS011;57073;45.650;9.612;2022-11-15T04:26:48;4.82;;;2.60;;
69795;SDS011;57073;45.650;9.612;2022-11-15T04:36:48;4.80;;;2.47;;
69795;SDS011;57073;45.650;9.612;2022-11-15T04:47:07;5.75;;;2.60;;
69795;SDS011;57073;45.650;9.612;2022-11-15T04:57:07;5.10;;;2.60;;
69795;SDS011;57073;45.650;9.612;2022-11-15T05:07:07;5.40;;;2.90;;
69795;SDS011;57073;45.650;9.612;2022-11-15T05:17:08;6.78;;;2.80;;
69795;SDS011;57073;45.650;9.612;2022-11-15T05:27:08;6.45;;;2.90;;
69795;SDS011;57073;45.650;9.612;2022-11-15T05:37:08;6.67;;;3.00;;
69795;SDS011;57073;45.650;9.612;2022-11-15T05:47:10;5.40;;;2.92;;
69795;SDS011;57073;45.650;9.612;2022-11-15T05:57:15;4.65;;;2.65;;
69795;SDS011;57073;45.650;9.612;2022-11-15T06:07:16;6.20;;;2.67;;
69795;SDS011;57073;45.650;9.612;2022-11-15T06:17:16;6.55;;;3.00;;
69795;SDS011;57073;45.650;9.612;2022-11-15T06:27:16;5.57;;;2.80;;
69795;SDS011;57073;45.650;9.612;2022-11-15T06:37:17;4.63;;;2.78;;
69795;SDS011;57073;45.650;9.612;2022-11-15T06:47:17;4.47;;;2.78;;
69795;SDS011;57073;45.650;9.612;2022-11-15T06:57:18;6.13;;;3.03;;
69795;SDS011;57073;45.650;9.612;2022-11-15T07:07:18;5.25;;;2.97;;
69795;SDS011;57073;45.650;9.612;2022-11-15T07:17:18;7.20;;;3.75;;
69795;SDS011;57073;45.650;9.612;2022-11-15T07:27:18;6.90;;;3.93;;
69795;SDS011;57073;45.650;9.612;2022-11-15T07:37:19;8.27;;;3.50;;
69795;SDS011;57073;45.650;9.612;2022-11-15T07:47:19;8.82;;;4.13;;
69795;SDS011;57073;45.650;9.612;2022-11-15T07:57:20;7.77;;;3.93;;
69795;SDS011;57073;45.650;9.612;2022-11-15T08:07:20;8.57;;;5.28;;
69795;SDS011;57073;45.650;9.612;2022-11-15T08:17:21;15.20;;;5.85;;
69795;SDS011;57073;45.650;9.612;2022-11-15T08:27:23;13.03;;;5.87;;
69795;SDS011;57073;45.650;9.612;2022-11-15T08:37:23;10.93;;;6.40;;
69795;SDS011;57073;45.650;9.612;2022-11-15T08:47:23;9.17;;;5.03;;
69795;SDS011;57073;45.650;9.612;2022-11-15T08:57:24;12.48;;;6.43;;
69795;SDS011;57073;45.650;9.612;2022-11-15T09:07:24;13.05;;;6.25;;
69795;SDS011;57073;45.650;9.612;2022-11-15T09:17:24;12.07;;;6.57;;
69795;SDS011;57073;45.650;9.612;2022-11-15T09:27:28;10.50;;;5.72;;
69795;SDS011;57073;45.650;9.612;2022-11-15T09:37:31;10.57;;;5.63;;
69795;SDS011;57073;45.650;9.612;2022-11-15T09:47:38;13.15;;;6.43;;
69795;SDS011;57073;45.650;9.612;2022-11-15T09:57:50;13.50;;;6.53;;
69795;SDS011;57073;45.650;9.612;2022-11-15T10:08:09;11.87;;;5.73;;
69795;SDS011;57073;45.650;9.612;2022-11-15T10:18:18;10.50;;;5.90;;
69795;SDS011;57073;45.650;9.612;2022-11-15T10:28:28;12.23;;;7.00;;
69795;SDS011;57073;45.650;9.612;2022-11-15T10:38:29;14.97;;;7.37;;
69795;SDS011;57073;45.650;9.612;2022-11-15T10:48:29;13.55;;;7.45;;
69795;SDS011;57073;45.650;9.612;2022-11-15T11:08:36;13.83;;;7.30;;
69795;SDS011;57073;45.650;9.612;2022-11-15T11:18:38;12.30;;;7.60;;
69795;SDS011;57073;45.650;9.612;2022-11-15T11:28:43;13.50;;;7.38;;
69795;SDS011;57073;45.650;9.612;2022-11-15T11:39:11;12.00;;;6.83;;
69795;SDS011;57073;45.650;9.612;2022-11-15T11:49:20;12.80;;;6.60;;
69795;SDS011;57073;45.650;9.612;2022-11-15T12:10:23;12.23;;;6.17;;
69795;SDS011;57073;45.650;9.612;2022-11-15T12:20:28;11.70;;;5.73;;
69795;SDS011;57073;45.650;9.612;2022-11-15T12:30:52;12.95;;;6.18;;
69795;SDS011;57073;45.650;9.612;2022-11-15T12:41:13;12.07;;;5.60;;
69795;SDS011;57073;45.650;9.612;2022-11-15T12:51:16;14.57;;;6.93;;
69795;SDS011;57073;45.650;9.612;2022-11-15T13:21:49;11.33;;;6.37;;
69795;SDS011;57073;45.650;9.612;2022-11-15T13:32:15;12.43;;;6.27;;
69795;SDS011;57073;45.650;9.612;2022-11-15T13:42:20;10.82;;;6.32;;
69795;SDS011;57073;45.650;9.612;2022-11-15T13:52:20;11.93;;;6.97;;
69795;SDS011;57073;45.650;9.612;2022-11-15T14:02:40;13.27;;;6.80;;
69795;SDS011;57073;45.650;9.612;2022-11-15T14:12:49;10.30;;;4.97;;
69795;SDS011;57073;45.650;9.612;2022-11-15T14:22:54;11.07;;;5.60;;
69795;SDS011;57073;45.650;9.612;2022-11-15T14:32:56;16.30;;;7.33;;
69795;SDS011;57073;45.650;9.612;2022-11-15T14:42:56;14.85;;;7.60;;
69795;SDS011;57073;45.650;9.612;2022-11-15T14:52:57;15.83;;;6.83;;
69795;SDS011;57073;45.650;9.612;2022-11-15T15:02:57;14.20;;;6.70;;
69795;SDS011;57073;45.650;9.612;2022-11-15T15:12:58;16.40;;;7.00;;
69795;SDS011;57073;45.650;9.612;2022-11-15T15:22:59;11.43;;;6.47;;
69795;SDS011;57073;45.650;9.612;2022-11-15T15:32:59;12.53;;;6.40;;
69795;SDS011;57073;45.650;9.612;2022-11-15T15:42:59;13.82;;;6.88;;
69795;SDS011;57073;45.650;9.612;2022-11-15T15:53:01;14.15;;;6.82;;
69795;SDS011;57073;45.650;9.612;2022-11-15T16:03:03;13.60;;;6.90;;
69795;SDS011;57073;45.650;9.612;2022-11-15T16:13:03;17.27;;;8.50;;
69795;SDS011;57073;45.650;9.612;2022-11-15T16:23:05;16.08;;;8.13;;
69795;SDS011;57073;45.650;9.612;2022-11-15T16:33:06;18.73;;;8.83;;
69795;SDS011;57073;45.650;9.612;2022-11-15T16:43:06;20.92;;;10.02;;
69795;SDS011;57073;45.650;9.612;2022-11-15T16:53:07;20.00;;;10.30;;
69795;SDS011;57073;45.650;9.612;2022-11-15T17:03:07;17.17;;;9.25;;
69795;SDS011;57073;45.650;9.612;2022-11-15T17:13:11;18.15;;;10.50;;
69795;SDS011;57073;45.650;9.612;2022-11-15T17:23:12;18.30;;;9.10;;
69795;SDS011;57073;45.650;9.612;2022-11-15T17:33:14;12.75;;;7.22;;
69795;SDS011;57073;45.650;9.612;2022-11-15T17:43:14;12.77;;;7.57;;
69795;SDS011;57073;45.650;9.612;2022-11-15T17:53:15;15.48;;;7.55;;
69795;SDS011;57073;45.650;9.612;2022-11-15T18:03:16;14.33;;;8.10;;
69795;SDS011;57073;45.650;9.612;2022-11-15T18:13:16;16.77;;;8.82;;
69795;SDS011;57073;45.650;9.612;2022-11-15T18:23:16;13.93;;;8.35;;
69795;SDS011;57073;45.650;9.612;2022-11-15T18:33:17;16.83;;;9.23;;
69795;SDS011;57073;45.650;9.612;2022-11-15T18:43:18;17.10;;;10.03;;
69795;SDS011;57073;45.650;9.612;2022-11-15T18:53:18;16.80;;;8.77;;
69795;SDS011;57073;45.650;9.612;2022-11-15T19:03:19;16.47;;;9.37;;
69795;SDS011;57073;45.650;9.612;2022-11-15T19:13:19;14.63;;;8.73;;
69795;SDS011;57073;45.650;9.612;2022-11-15T19:23:19;12.48;;;7.63;;
69795;SDS011;57073;45.650;9.612;2022-11-15T19:33:20;16.37;;;8.40;;
69795;SDS011;57073;45.650;9.612;2022-11-15T19:43:20;14.95;;;8.73;;
69795;SDS011;57073;45.650;9.612;2022-11-15T19:53:22;16.33;;;8.52;;
69795;SDS011;57073;45.650;9.612;2022-11-15T20:03:22;16.77;;;8.90;;
69795;SDS011;57073;45.650;9.612;2022-11-15T20:13:23;15.50;;;8.52;;
69795;SDS011;57073;45.650;9.612;2022-11-15T20:23:24;15.80;;;9.33;;
69795;SDS011;57073;45.650;9.612;2022-11-15T20:33:25;17.98;;;9.88;;
69795;SDS011;57073;45.650;9.612;2022-11-15T20:43:26;22.67;;;12.53;;
69795;SDS011;57073;45.650;9.612;2022-11-15T20:53:26;20.05;;;10.98;;
69795;SDS011;57073;45.650;9.612;2022-11-15T21:03:27;16.07;;;9.40;;
69795;SDS011;57073;45.650;9.612;2022-11-15T21:13:27;16.00;;;8.98;;
69795;SDS011;57073;45.650;9.612;2022-11-15T21:23:27;16.65;;;8.10;;
69795;SDS011;57073;45.650;9.612;2022-11-15T21:33:28;16.60;;;8.87;;
69795;SDS011;57073;45.650;9.612;2022-11-15T21:43:28;17.83;;;8.83;;
69795;SDS011;57073;45.650;9.612;2022-11-15T21:53:29;16.67;;;8.43;;
69795;SDS011;57073;45.650;9.612;2022-11-15T22:03:30;15.87;;;8.37;;
69795;SDS011;57073;45.650;9.612;2022-11-15T22:13:31;17.02;;;9.23;;
69795;SDS011;57073;45.650;9.612;2022-11-15T22:23:32;16.97;;;8.03;;
69795;SDS011;57073;45.650;9.612;2022-11-15T22:33:33;15.13;;;8.00;;
69795;SDS011;57073;45.650;9.612;2022-11-15T22:43:34;16.37;;;7.50;;
69795;SDS011;57073;45.650;9.612;2022-11-15T22:53:34;14.32;;;7.57;;
69795;SDS011;57073;45.650;9.612;2022-11-15T23:03:34;15.07;;;8.10;;
69795;SDS011;57073;45.650;9.612;2022-11-15T23:13:35;12.55;;;6.90;;
69795;SDS011;57073;45.650;9.612;2022-11-15T23:23:35;12.45;;;6.80;;
69795;SDS011;57073;45.650;9.612;2022-11-15T23:33:36;13.17;;;7.47;;
69795;SDS011;57073;45.650;9.612;2022-11-15T23:43:56;14.17;;;7.60;;
69795;SDS011;57073;45.650;9.612;2022-11-15T23:53:56;13.52;;;8.18;;
